Flight Track Log - Related Links

Times and Time Zones

All times are in EDT time to prevent confusion due to time zone crossing. See the FLG3432 flight status page for this flight to view local times or setup timezone preferences in your user account.

Time Position Orientation Groundspeed Altitude Reporting Facility
EDT Latitude Longitude Course Direction KTS MPH feet Rate Location/Type
Mon 06:31:06 AM 42.7256 -73.8053 284° West 140 161 1,500  Level Boston Center
Mon 06:32:13 AM 42.7103 -73.8642 251° West 248 285 2,700 1,855 Climbing Boston Center
Mon 06:33:00 AM 42.8165 -74.2234 282° West  Level FlightAware
Mon 06:33:38 AM 42.7694 -73.9731 307° West 272 313 6,200  Level Boston Center
Mon 06:34:00 AM 42.8392 -74.3683 283° West  Level FlightAware
Mon 06:34:38 AM 42.8181 -74.0619 307° West 282 325 9,000  Level Boston Center
Mon 06:35:00 AM 42.8633 -74.5129 283° West  Level FlightAware
Mon 06:35:38 AM 42.8669 -74.1511 307° West 298 343 10,900  Level Boston Center
Mon 06:36:00 AM 42.8988 -74.6512 284° West  Level FlightAware
Mon 06:36:38 AM 42.9297 -74.2633 307° West 332 382 13,400  Level Boston Center
Mon 06:37:38 AM 42.9822 -74.3644 305° West 349 402 15,300 2,000 Climbing Boston Center
Mon 06:38:38 AM 43.0025 -74.5156 280° West 384 442 17,400 1,850 Climbing Boston Center
Mon 06:39:38 AM 43.0167 -74.6467 278° West 379 436 19,000 1,750 Climbing Boston Center
Mon 06:40:38 AM 43.0344 -74.8092 279° West 386 444 20,900 1,750 Climbing Boston Center
Mon 06:41:38 AM 43.0458 -74.9603 276° West 392 451 22,500 1,550 Climbing Boston Center
Mon 06:42:38 AM 43.0631 -75.1172 279° West 410 472 24,000 1,350 Climbing Boston Center
Mon 06:43:38 AM 43.0758 -75.2769 276° West 415 478 25,200 1,100 Climbing Boston Center
Mon 06:44:38 AM 43.0908 -75.4200 278° West 427 491 26,200 1,150 Climbing Boston Center
Mon 06:45:38 AM 43.1053 -75.5856 277° West 434 499 27,500 1,450 Climbing Boston Center
Mon 06:46:38 AM 43.1214 -75.7514 278° West 434 499 29,100 1,393 Climbing Boston Center
Mon 06:48:26 AM 43.1458 -76.0297 277° West 412 474 31,400 1,229 Climbing Cleveland Center
Mon 06:49:24 AM 43.1564 -76.1942 275° West 417 480 32,500 1,220 Climbing Cleveland Center
Mon 06:50:24 AM 43.1481 -76.3572 266° West 422 486 33,800 1,140 Climbing Cleveland Center
Mon 06:51:25 AM 43.1347 -76.5144 263° West 422 486 34,800 1,050 Climbing Cleveland Center
Mon 06:52:24 AM 43.1214 -76.6719 263° West 427 491 35,900 600 Climbing Cleveland Center
Mon 06:53:25 AM 43.1044 -76.8464 262° West 427 491 36,000 49 Climbing Cleveland Center
Mon 06:54:26 AM 43.0906 -77.0067 263° West 427 491 36,000  Level Cleveland Center
Mon 06:55:24 AM 43.0750 -77.1753 263° West 434 499 36,000  Level Cleveland Center
Mon 06:56:25 AM 43.0586 -77.3381 262° West 434 499 36,000  Level Cleveland Center
Mon 06:57:26 AM 43.0444 -77.4981 263° West 434 499 36,000  Level Cleveland Center
Mon 06:58:26 AM 43.0297 -77.6606 263° West 434 499 36,000  Level Cleveland Center
Mon 06:59:25 AM 43.0153 -77.8289 263° West 434 499 36,000  Level Cleveland Center
Mon 07:00:26 AM 43.0417 -77.9897 283° West 434 499 36,000  Level Cleveland Center
Mon 07:01:24 AM 43.0744 -78.1503 286° West 439 505 36,000  Level Cleveland Center
Mon 07:02:26 AM 43.1047 -78.3083 285° West 439 505 36,000  Level Cleveland Center
Mon 07:03:26 AM 43.1347 -78.4525 286° West 439 505 36,000  Level Cleveland Center
Mon 07:04:24 AM 43.1644 -78.6081 285° West 432 497 36,000  Level Cleveland Center
Mon 07:05:25 AM 43.1942 -78.7636 285° West 432 497 36,000  Level Cleveland Center
Mon 07:06:25 AM 43.2236 -78.9194 285° West 432 497 36,000  Level Cleveland Center
Mon 07:06:41 AM 43.2333 -78.9667 286° West 430 495 36,000  Level Toronto Center
Mon 07:07:41 AM 43.2500 -79.1333 278° West 430 495 36,000  Level Toronto Center
Mon 07:08:41 AM 43.2833 -79.2833 287° West 430 495 36,000  Level Toronto Center
Mon 07:09:41 AM 43.3167 -79.4333 287° West 430 495 36,000  Level Toronto Center
Mon 07:10:41 AM 43.3333 -79.6167 277° West 430 495 36,000  Level Toronto Center
Mon 07:11:41 AM 43.3667 -79.7500 289° West 430 495 36,000  Level Toronto Center
Mon 07:12:41 AM 43.4000 -79.9167 285° West 430 495 36,000  Level Toronto Center
Mon 07:13:41 AM 43.4333 -80.1000 284° West 430 495 36,000  Level Toronto Center
Mon 07:14:41 AM 43.4500 -80.2333 280° West 430 495 36,000  Level Toronto Center
Mon 07:15:41 AM 43.4833 -80.3833 287° West 430 495 36,000  Level Toronto Center
Mon 07:16:41 AM 43.5167 -80.5500 285° West 430 495 36,000  Level Toronto Center
Mon 07:17:41 AM 43.5500 -80.7167 285° West 430 495 36,000  Level Toronto Center
Mon 07:18:41 AM 43.5500 -80.8833 270° West 430 495 36,000  Level Toronto Center
Mon 07:19:41 AM 43.5833 -81.0333 287° West 440 506 36,000  Level Toronto Center
Mon 07:20:41 AM 43.6167 -81.2000 285° West 440 506 36,000  Level Toronto Center
Mon 07:21:41 AM 43.6500 -81.3833 284° West 440 506 36,000  Level Toronto Center
Mon 07:22:41 AM 43.6667 -81.5167 280° West 440 506 36,000  Level Toronto Center
Mon 07:23:41 AM 43.7000 -81.7167 283° West 440 506 36,000  Level Toronto Center
Mon 07:24:41 AM 43.7333 -81.8667 287° West 440 506 36,000  Level Toronto Center
Mon 07:25:41 AM 43.7500 -82.0333 278° West 440 506 36,000  Level Toronto Center
Mon 07:26:41 AM 43.7667 -82.2000 278° West 440 506 36,000  Level Toronto Center
Mon 07:27:41 AM 43.8000 -82.3667 286° West 440 506 36,000  Level Toronto Center
Mon 07:28:41 AM 43.8333 -82.5167 287° West 440 506 36,000  Level Toronto Center
Mon 07:29:41 AM 43.8500 -82.7167 277° West 440 506 36,000  Level Toronto Center
Mon 07:30:41 AM 43.8667 -82.8500 280° West 440 506 36,000  Level Toronto Center
Mon 07:31:06 AM 43.8875 -82.8686 327° Northwest 437 503 36,000  Level Minneapolis Center
Mon 07:32:07 AM 43.9206 -83.1006 281° West 439 505 36,000  Level Minneapolis Center
Mon 07:33:07 AM 43.9461 -83.2656 282° West 438 504 36,000  Level Minneapolis Center
Mon 07:34:08 AM 43.9703 -83.4314 282° West 439 505 36,000  Level Minneapolis Center
Mon 07:35:09 AM 43.9942 -83.5972 281° West 439 505 36,000  Level Minneapolis Center
Mon 07:36:10 AM 44.0186 -83.7636 282° West 440 506 36,000  Level Minneapolis Center
Mon 07:37:11 AM 44.0408 -83.9306 281° West 440 506 36,000  Level Minneapolis Center
Mon 07:38:11 AM 44.0644 -84.0964 281° West 440 506 36,000  Level Minneapolis Center
Mon 07:39:12 AM 44.0883 -84.2636 281° West 441 507 36,000  Level Minneapolis Center
Mon 07:40:13 AM 44.1122 -84.4314 281° West 443 510 36,000  Level Minneapolis Center
Mon 07:41:14 AM 44.1347 -84.6003 281° West 443 510 36,000  Level Minneapolis Center
Mon 07:42:15 AM 44.1561 -84.7692 280° West 443 510 36,000  Level Minneapolis Center
Mon 07:43:16 AM 44.1792 -84.9378 281° West 444 511 36,000  Level Minneapolis Center
Mon 07:44:16 AM 44.2006 -85.1078 280° West 445 512 36,000  Level Minneapolis Center
Mon 07:45:17 AM 44.2225 -85.2778 280° West 445 512 36,000  Level Minneapolis Center
Mon 07:46:18 AM 44.2444 -85.4467 280° West 444 511 36,000  Level Minneapolis Center
Mon 07:47:19 AM 44.2661 -85.6164 280° West 443 510 36,000  Level Minneapolis Center
Mon 07:48:20 AM 44.2903 -85.8217 279° West 445 512 36,000  Level Minneapolis Center
Mon 07:49:21 AM 44.3114 -85.9919 280° West 444 511 36,000  Level Minneapolis Center
Mon 07:50:34 AM 44.3317 -86.1625 279° West 443 510 36,000  Level Minneapolis Center
Mon 07:51:35 AM 44.3550 -86.3675 279° West 442 509 36,000  Level Minneapolis Center
Mon 07:52:36 AM 44.3756 -86.5386 280° West 444 511 36,000  Level Minneapolis Center
Mon 07:53:37 AM 44.3944 -86.7081 279° West 442 509 36,000  Level Minneapolis Center
Mon 07:54:38 AM 44.4153 -86.8783 280° West 443 510 36,000  Level Minneapolis Center
Mon 07:55:39 AM 44.4331 -87.0475 278° West 440 506 36,000  Level Minneapolis Center
Mon 07:56:40 AM 44.4517 -87.2164 279° West 440 506 36,000  Level Minneapolis Center
Mon 07:57:40 AM 44.4700 -87.3872 279° West 442 509 36,000  Level Minneapolis Center
Mon 07:58:41 AM 44.4892 -87.5558 279° West 439 505 36,000  Level Minneapolis Center
Mon 07:59:42 AM 44.5064 -87.7256 278° West 439 505 36,000  Level Minneapolis Center
Mon 08:00:43 AM 44.5247 -87.8936 279° West 437 503 36,000  Level Minneapolis Center
Mon 08:01:44 AM 44.5414 -88.0703 278° West 435 501 36,000  Level Minneapolis Center
Mon 08:02:45 AM 44.5586 -88.2383 278° West 436 502 36,000  Level Minneapolis Center
Mon 08:03:46 AM 44.5794 -88.4078 280° West 442 509 36,000  Level Minneapolis Center
Mon 08:05:00 AM 44.5925 -88.6026 275° West  Level FlightAware
Mon 08:06:00 AM 44.6253 -88.8025 275° West 441 507 36,000  Level Minneapolis Center
Mon 08:07:01 AM 44.6436 -88.9728 279° West 442 509 36,000 -424 Level Minneapolis Center
Mon 08:09:04 AM 44.6819 -89.3131 279° West 442 509 34,700 -717 Descending Minneapolis Center
Mon 08:10:05 AM 44.6997 -89.4814 279° West 438 504 33,800 -664 Descending Minneapolis Center
Mon 08:12:00 AM 44.7266 -89.7978 277° West  Level FlightAware
Mon 08:13:08 AM 44.7547 -90.0028 277° West 454 522 32,000  Level Minneapolis Center
Mon 08:14:09 AM 44.7811 -90.2086 280° West 457 526 32,000  Level Minneapolis Center
Mon 08:16:12 AM 44.8294 -90.5647 281° West 461 531 32,000 -1,174 Level Minneapolis Center
Mon 08:18:00 AM 44.8316 -90.8556 276° West  Level FlightAware
Mon 08:20:17 AM 44.9181 -91.2586 285° West 441 507 24,800  Level Minneapolis Center
Mon 08:21:18 AM 44.9406 -91.4208 281° West 430 495 22,600 -2,115 Descending Minneapolis Center
Mon 08:22:19 AM 44.9594 -91.5767 280° West 415 478 20,500 -2,016 Descending Minneapolis Center
Mon 08:23:20 AM 44.9781 -91.7292 280° West 402 463 18,500 -2,049 Descending Minneapolis Center
Mon 08:24:22 AM 45.0025 -91.9067 281° West 390 449 16,300 -2,022 Descending Minneapolis Center
Mon 08:25:00 AM 44.9737 -91.9543 285° West  Level FlightAware
Mon 08:26:24 AM 45.0369 -92.1939 280° West 373 429 12,300  Level Minneapolis Center
Mon 08:27:26 AM 45.0425 -92.3336 273° West 360 414 11,000 -829 Descending Minneapolis Center
Mon 08:28:27 AM 45.0106 -92.4458 248° West 300 345 10,600 -1,082 Descending Minneapolis Center
Mon 08:29:28 AM 44.9656 -92.5364 235° Southwest 285 328 8,800 -1,707 Descending Minneapolis Center
Mon 08:30:30 AM 44.9214 -92.6267 235° Southwest 280 322 7,100 -878 Descending Minneapolis Center
Mon 08:31:31 AM 44.8775 -92.7147 235° Southwest 276 318 7,000 -941 Descending Minneapolis Center
Mon 08:33:35 AM 44.8167 -92.9167 247° West 262 302 4,200 -1,043 Descending Minneapolis TRACON
Mon 08:34:35 AM 44.8222 -93.0106 275° West 228 262 3,800 -689 Descending Minneapolis Center
Mon 08:35:37 AM 44.8325 -93.0778 282° West 181 208 2,800 -878 Descending Minneapolis Center
Mon 08:36:38 AM 44.8539 -93.1317 299° West 161 185 2,000 -780 Descending Minneapolis Center
Mon 08:37:40 AM 44.8739 -93.1769 302° West 139 160 1,200 -774 Descending Minneapolis Center

Login

Don't have an account? Register now (free) for customized features, flight alerts, and more!